createdAt,value
2019-03-22T00:02:20.472Z,100.00
2019-03-22T00:04:47.852Z,100.00
2019-03-22T00:07:15.288Z,100.00
2019-03-22T00:09:42.571Z,100.00
2019-03-22T00:12:09.949Z,100.00
2019-03-22T00:14:49.859Z,100.00
2019-03-22T00:17:17.195Z,100.00
2019-03-22T00:19:44.579Z,100.00
2019-03-22T00:22:11.906Z,100.00
2019-03-22T00:24:39.176Z,100.00
2019-03-22T00:27:16.007Z,100.00
2019-03-22T00:29:36.020Z,100.00
2019-03-22T00:32:03.288Z,100.00
2019-03-22T00:34:30.557Z,100.00
2019-03-22T00:36:58.377Z,100.00
2019-03-22T00:39:26.206Z,100.00
2019-03-22T00:41:53.492Z,100.00
2019-03-22T00:44:20.828Z,100.00
2019-03-22T00:46:48.214Z,100.00
2019-03-22T00:49:15.451Z,100.00
2019-03-22T00:51:42.799Z,100.00
2019-03-22T00:54:10.201Z,100.00
2019-03-22T00:56:37.475Z,100.00
2019-03-22T00:59:04.930Z,100.00
2019-03-22T01:01:32.306Z,100.00
2019-03-22T01:03:59.674Z,100.00
2019-03-22T01:06:27.105Z,100.00
2019-03-22T01:09:35.140Z,100.00
2019-03-22T01:12:02.961Z,100.00
2019-03-22T01:14:30.327Z,100.00
2019-03-22T01:16:57.941Z,100.00
2019-03-22T01:19:25.343Z,100.00
2019-03-22T01:21:52.900Z,100.00
2019-03-22T01:24:20.188Z,100.00
2019-03-22T01:26:47.603Z,100.00
2019-03-22T01:29:15.014Z,100.00
2019-03-22T01:31:42.286Z,100.00
2019-03-22T01:34:10.112Z,100.00
2019-03-22T01:36:37.407Z,100.00
2019-03-22T01:39:05.915Z,100.00
2019-03-22T01:41:33.237Z,100.00
2019-03-22T01:44:00.595Z,100.00
2019-03-22T01:46:28.932Z,100.00
2019-03-22T01:48:56.323Z,100.00
2019-03-22T01:51:23.715Z,100.00
2019-03-22T01:53:50.987Z,100.00
2019-03-22T01:56:18.715Z,100.00
2019-03-22T01:58:46.430Z,100.00
2019-03-22T02:01:13.992Z,100.00
2019-03-22T02:03:41.338Z,100.00
2019-03-22T02:06:08.705Z,100.00
2019-03-22T02:08:35.980Z,100.00
2019-03-22T02:11:03.382Z,100.00
2019-03-22T02:13:30.683Z,100.00
2019-03-22T02:15:58.045Z,100.00
2019-03-22T02:18:25.803Z,100.00
2019-03-22T02:20:53.170Z,100.00
2019-03-22T02:23:20.448Z,100.00
2019-03-22T02:25:47.871Z,100.00
2019-03-22T02:28:15.149Z,100.00
2019-03-22T02:30:42.807Z,100.00
2019-03-22T02:33:10.426Z,100.00
2019-03-22T02:35:37.809Z,100.00
2019-03-22T02:38:05.097Z,100.00
2019-03-22T02:40:32.486Z,100.00
2019-03-22T02:42:59.887Z,100.00
2019-03-22T02:45:27.265Z,100.00
2019-03-22T02:47:54.607Z,100.00
2019-03-22T02:50:21.911Z,100.00
2019-03-22T02:52:49.192Z,100.00
2019-03-22T02:55:16.504Z,100.00
2019-03-22T02:57:43.875Z,100.00
2019-03-22T03:00:13.553Z,100.00
2019-03-22T03:02:40.935Z,100.00
2019-03-22T03:05:32.469Z,100.00
2019-03-22T03:08:00.127Z,100.00
2019-03-22T03:10:27.469Z,100.00
2019-03-22T03:12:55.215Z,100.00
2019-03-22T03:15:22.666Z,100.00
2019-03-22T03:17:50.493Z,100.00
2019-03-22T03:20:30.475Z,100.00
2019-03-22T03:22:57.756Z,100.00
2019-03-22T03:25:25.027Z,100.00
2019-03-22T03:27:52.772Z,100.00
2019-03-22T03:30:20.167Z,100.00
2019-03-22T03:32:48.050Z,100.00
2019-03-22T03:35:15.718Z,100.00
2019-03-22T03:37:43.148Z,100.00
2019-03-22T03:40:10.840Z,100.00
2019-03-22T03:42:38.254Z,100.00
2019-03-22T03:45:06.532Z,100.00
2019-03-22T03:47:33.813Z,100.00
2019-03-22T03:50:01.558Z,100.00
2019-03-22T03:52:28.816Z,100.00
2019-03-22T03:54:56.103Z,100.00
2019-03-22T03:57:23.431Z,100.00
2019-03-22T03:59:51.000Z,100.00
2019-03-22T04:02:18.278Z,100.00
2019-03-22T04:04:45.750Z,100.00
2019-03-22T04:07:13.135Z,100.00
2019-03-22T04:09:40.416Z,100.00
2019-03-22T04:12:07.862Z,100.00
2019-03-22T04:14:35.267Z,100.00
2019-03-22T04:17:02.637Z,100.00
2019-03-22T04:19:30.287Z,100.00
2019-03-22T04:21:57.684Z,100.00
2019-03-22T04:24:25.073Z,100.00
2019-03-22T04:26:52.581Z,100.00
2019-03-22T04:29:20.083Z,100.00
2019-03-22T04:31:47.369Z,100.00
2019-03-22T04:34:15.298Z,100.00
2019-03-22T04:36:42.688Z,100.00
2019-03-22T04:39:10.342Z,100.00
2019-03-22T04:41:37.783Z,100.00
2019-03-22T04:44:12.702Z,100.00
2019-03-22T04:47:21.088Z,100.00
2019-03-22T04:50:29.285Z,100.00
2019-03-22T04:52:57.229Z,100.00
2019-03-22T04:55:25.274Z,100.00
2019-03-22T04:58:33.667Z,100.00
2019-03-22T05:01:01.706Z,100.00
2019-03-22T05:03:30.157Z,100.00
2019-03-22T05:06:18.702Z,100.00
2019-03-22T05:09:07.588Z,100.00
2019-03-22T05:11:35.568Z,100.00
2019-03-22T05:14:43.650Z,100.00
2019-03-22T05:17:51.811Z,100.00
2019-03-22T05:20:59.967Z,100.00
2019-03-22T05:26:44.789Z,100.00
2019-03-22T05:29:52.832Z,100.00
2019-03-22T05:32:20.586Z,100.00
2019-03-22T05:34:48.019Z,100.00
2019-03-22T05:37:15.269Z,100.00
2019-03-22T05:39:42.840Z,100.00
2019-03-22T05:42:10.529Z,100.00
2019-03-22T05:44:37.815Z,100.00
2019-03-22T05:47:05.167Z,100.00
2019-03-22T05:49:32.449Z,100.00
2019-03-22T05:51:59.726Z,100.00
2019-03-22T05:54:27.173Z,100.00
2019-03-22T05:56:54.700Z,100.00
2019-03-22T05:59:22.372Z,100.00
2019-03-22T06:01:49.858Z,100.00
2019-03-22T06:04:17.143Z,100.00
2019-03-22T06:06:44.887Z,100.00
2019-03-22T06:09:12.242Z,100.00
2019-03-22T06:11:39.803Z,100.00
2019-03-22T06:14:07.198Z,100.00
2019-03-22T06:16:34.652Z,100.00
2019-03-22T06:19:01.947Z,100.00
2019-03-22T06:21:29.230Z,100.00
2019-03-22T06:23:56.819Z,100.00
2019-03-22T06:26:24.260Z,100.00
2019-03-22T06:28:51.738Z,100.00
2019-03-22T06:31:20.787Z,100.00
2019-03-22T06:33:48.960Z,100.00
2019-03-22T06:36:16.595Z,100.00
2019-03-22T06:38:44.641Z,100.00
2019-03-22T06:41:12.221Z,100.00
2019-03-22T06:43:40.676Z,100.00
2019-03-22T06:46:08.361Z,100.00
2019-03-22T06:48:35.984Z,100.00
2019-03-22T06:51:03.631Z,100.00
2019-03-22T06:53:31.331Z,100.00
2019-03-22T06:55:58.977Z,100.00
2019-03-22T06:58:26.923Z,100.00
2019-03-22T07:00:54.613Z,100.00
2019-03-22T07:03:22.257Z,100.00
2019-03-22T07:05:50.240Z,100.00
2019-03-22T07:08:17.949Z,100.00
2019-03-22T07:10:45.571Z,100.00
2019-03-22T07:13:32.474Z,100.00
2019-03-22T07:16:00.081Z,100.00
2019-03-22T07:18:27.716Z,100.00
2019-03-22T07:20:55.485Z,100.00
2019-03-22T07:23:23.087Z,100.00
2019-03-22T07:25:50.770Z,100.00
2019-03-22T07:28:18.529Z,100.00
2019-03-22T07:30:46.183Z,100.00
2019-03-22T07:33:14.189Z,100.00
2019-03-22T07:35:41.930Z,100.00
2019-03-22T07:38:09.545Z,100.00
2019-03-22T07:40:37.163Z,100.00
2019-03-22T07:43:04.857Z,100.00
2019-03-22T07:45:33.000Z,100.00
2019-03-22T07:48:00.626Z,100.00
2019-03-22T07:50:28.505Z,100.00
2019-03-22T07:52:56.139Z,100.00
2019-03-22T07:55:24.183Z,100.00
2019-03-22T07:57:51.913Z,100.00
2019-03-22T08:00:30.129Z,100.00
2019-03-22T08:02:48.912Z,100.00
2019-03-22T08:05:16.597Z,100.00
2019-03-22T08:07:44.463Z,100.00
2019-03-22T08:10:11.849Z,100.00
2019-03-22T08:12:39.298Z,100.00
2019-03-22T08:15:08.329Z,100.00
2019-03-22T08:17:36.321Z,100.00
2019-03-22T08:20:04.802Z,100.00
2019-03-22T08:22:32.547Z,100.00
2019-03-22T08:25:00.404Z,100.00
2019-03-22T08:27:28.148Z,100.00
2019-03-22T08:29:55.844Z,100.00
2019-03-22T08:32:23.680Z,100.00
2019-03-22T08:34:51.874Z,100.00
2019-03-22T08:37:19.507Z,100.00
2019-03-22T08:39:49.341Z,100.00
2019-03-22T08:42:18.961Z,100.00
2019-03-22T08:44:47.197Z,100.00
2019-03-22T08:47:14.854Z,100.00
2019-03-22T08:49:43.792Z,100.00
2019-03-22T08:52:11.560Z,100.00
2019-03-22T08:54:39.311Z,100.00
2019-03-22T08:57:07.067Z,100.00
2019-03-22T08:59:53.698Z,100.00
2019-03-22T09:02:21.096Z,100.00
2019-03-22T09:04:48.780Z,100.00
2019-03-22T09:07:16.148Z,100.00
2019-03-22T09:10:04.061Z,100.00
2019-03-22T09:12:33.708Z,100.00
2019-03-22T09:15:01.233Z,100.00
2019-03-22T09:17:28.636Z,100.00
2019-03-22T09:19:56.010Z,100.00
2019-03-22T09:22:24.114Z,100.00
2019-03-22T09:24:51.985Z,100.00
2019-03-22T09:27:19.461Z,100.00
2019-03-22T09:29:47.481Z,100.00
2019-03-22T09:32:16.125Z,100.00
2019-03-22T09:34:43.436Z,100.00
2019-03-22T09:37:10.913Z,100.00
2019-03-22T09:39:38.960Z,100.00
2019-03-22T09:42:06.416Z,100.00
2019-03-22T09:44:43.162Z,100.00
2019-03-22T09:47:03.549Z,100.00
2019-03-22T09:49:31.227Z,100.00
2019-03-22T09:51:58.868Z,100.00
2019-03-22T09:54:26.601Z,100.00
2019-03-22T09:56:54.403Z,100.00
2019-03-22T09:59:22.267Z,100.00
2019-03-22T10:01:50.118Z,100.00
2019-03-22T10:04:20.537Z,100.00
2019-03-22T10:06:48.615Z,100.00
2019-03-22T10:09:16.584Z,100.00
2019-03-22T10:11:44.177Z,100.00
2019-03-22T10:14:13.257Z,100.00
2019-03-22T10:16:40.978Z,100.00
2019-03-22T10:19:08.663Z,100.00
2019-03-22T10:21:36.628Z,100.00
2019-03-22T10:24:04.351Z,100.00
2019-03-22T10:26:32.011Z,100.00
2019-03-22T10:28:59.621Z,100.00
2019-03-22T10:31:37.086Z,100.00
2019-03-22T10:33:56.624Z,100.00
2019-03-22T10:36:23.931Z,100.00
2019-03-22T10:38:51.559Z,100.00
2019-03-22T10:41:18.857Z,100.00
2019-03-22T10:43:46.293Z,100.00
2019-03-22T10:46:13.738Z,100.00
2019-03-22T10:48:41.030Z,100.00
2019-03-22T10:51:08.738Z,100.00
2019-03-22T10:53:36.252Z,100.00
2019-03-22T10:56:03.630Z,100.00
2019-03-22T10:58:31.162Z,100.00
2019-03-22T11:00:58.717Z,100.00
2019-03-22T11:03:26.086Z,100.00
2019-03-22T11:05:53.910Z,100.00
2019-03-22T11:08:21.385Z,100.00
2019-03-22T11:11:08.009Z,100.00
2019-03-22T11:13:35.504Z,100.00
2019-03-22T11:18:51.907Z,100.00
2019-03-22T11:21:19.185Z,100.00
2019-03-22T11:23:46.957Z,100.00
2019-03-22T11:26:14.809Z,100.00
2019-03-22T11:28:42.270Z,100.00
2019-03-22T11:31:09.542Z,100.00
2019-03-22T11:36:43.621Z,100.00
2019-03-22T11:39:15.583Z,100.00
2019-03-22T11:41:40.986Z,100.00
2019-03-22T11:44:09.042Z,100.00
2019-03-22T11:46:36.787Z,100.00
2019-03-22T11:49:04.427Z,99.63
2019-03-22T11:51:32.094Z,98.99
2019-03-22T11:53:59.887Z,99.01
2019-03-22T11:56:27.533Z,97.71
2019-03-22T11:58:55.580Z,97.21
2019-03-22T12:01:23.693Z,96.41
2019-03-22T12:03:51.369Z,97.45
2019-03-22T12:06:19.035Z,95.57
2019-03-22T12:08:47.280Z,93.24
2019-03-22T12:11:14.921Z,92.91
2019-03-22T12:13:42.614Z,92.86
2019-03-22T12:16:10.320Z,93.36
2019-03-22T12:18:38.340Z,93.97
2019-03-22T12:21:05.961Z,95.65
2019-03-22T12:23:34.079Z,92.76
2019-03-22T12:26:02.045Z,87.74
2019-03-22T12:28:30.105Z,89.42
2019-03-22T12:30:57.785Z,87.49
2019-03-22T12:33:25.414Z,88.20
2019-03-22T12:35:53.105Z,87.68
2019-03-22T12:38:20.859Z,87.98
2019-03-22T12:40:48.534Z,86.62
2019-03-22T12:43:16.154Z,86.15
2019-03-22T12:45:43.858Z,82.45
2019-03-22T12:48:11.494Z,85.07
2019-03-22T12:50:39.144Z,83.26
2019-03-22T12:53:07.161Z,83.66
2019-03-22T12:55:34.834Z,82.13
2019-03-22T12:58:02.878Z,83.88
2019-03-22T13:00:30.792Z,83.77
2019-03-22T13:02:58.447Z,80.91
2019-03-22T13:05:26.118Z,79.80
2019-03-22T13:07:53.891Z,80.49
2019-03-22T13:10:42.423Z,83.44
2019-03-22T13:13:09.940Z,80.13
2019-03-22T13:15:37.312Z,78.64
2019-03-22T13:18:04.692Z,77.77
2019-03-22T13:20:32.143Z,79.52
2019-03-22T13:22:59.886Z,77.83
2019-03-22T13:25:27.419Z,80.09
2019-03-22T13:27:54.807Z,82.60
2019-03-22T13:30:41.334Z,83.51
2019-03-22T13:33:08.659Z,80.92
2019-03-22T13:35:35.922Z,78.16
2019-03-22T13:38:03.473Z,77.85
2019-03-22T13:40:30.900Z,81.21
2019-03-22T13:46:06.674Z,80.75
2019-03-22T13:48:33.937Z,77.37
2019-03-22T13:51:01.426Z,79.72
2019-03-22T13:53:28.740Z,80.59
2019-03-22T13:55:56.012Z,79.55
2019-03-22T13:58:23.259Z,79.16
2019-03-22T14:00:51.057Z,80.50
2019-03-22T14:03:18.317Z,79.29
2019-03-22T14:05:45.684Z,80.80
2019-03-22T14:08:13.005Z,77.17
2019-03-22T14:10:40.253Z,79.27
2019-03-22T14:13:07.521Z,79.51
2019-03-22T14:15:35.094Z,80.12
2019-03-22T14:18:02.556Z,79.84
2019-03-22T14:20:30.112Z,81.55
2019-03-22T14:22:57.805Z,81.42
2019-03-22T14:25:25.679Z,81.41
2019-03-22T14:27:52.960Z,83.38
2019-03-22T14:30:20.273Z,80.47
2019-03-22T14:32:47.634Z,80.67
2019-03-22T14:35:15.095Z,82.12
2019-03-22T14:37:42.409Z,82.04
2019-03-22T14:40:15.454Z,82.84
2019-03-22T14:42:39.391Z,76.59
2019-03-22T14:45:07.388Z,79.50
2019-03-22T14:47:35.015Z,82.06
2019-03-22T14:50:02.481Z,84.46
2019-03-22T14:52:29.795Z,84.19
2019-03-22T14:54:57.056Z,83.10
2019-03-22T14:57:24.359Z,83.32
2019-03-22T14:59:58.777Z,83.84
2019-03-22T15:02:20.929Z,83.87
2019-03-22T15:04:48.291Z,85.39
2019-03-22T15:07:19.960Z,86.20
2019-03-22T15:09:46.280Z,85.25
2019-03-22T15:12:14.243Z,86.54
2019-03-22T15:15:01.732Z,86.85
2019-03-22T15:17:48.689Z,87.58
2019-03-22T15:20:35.647Z,87.13
2019-03-22T15:23:22.645Z,88.63
2019-03-22T15:26:09.953Z,87.58
2019-03-22T15:28:56.866Z,90.47
2019-03-22T15:31:44.192Z,89.86
2019-03-22T15:34:31.390Z,90.41
2019-03-22T15:37:18.545Z,90.34
2019-03-22T15:40:05.800Z,89.51
2019-03-22T15:42:33.338Z,89.76
2019-03-22T15:45:00.714Z,88.50
2019-03-22T15:47:28.479Z,88.54
2019-03-22T15:49:55.891Z,90.31
2019-03-22T15:52:23.149Z,88.66
2019-03-22T15:54:50.406Z,89.92
2019-03-22T15:57:18.120Z,89.68
2019-03-22T15:59:45.523Z,90.57
2019-03-22T16:02:12.886Z,91.22
2019-03-22T16:04:40.209Z,91.65
2019-03-22T16:07:07.477Z,90.89
2019-03-22T16:09:34.733Z,92.01
2019-03-22T16:12:02.134Z,92.56
2019-03-22T16:14:29.395Z,92.16
2019-03-22T16:16:56.650Z,91.71
2019-03-22T16:19:24.260Z,93.79
2019-03-22T16:21:51.845Z,95.02
2019-03-22T16:24:19.235Z,95.56
2019-03-22T16:26:46.886Z,95.21
2019-03-22T16:29:14.136Z,94.86
2019-03-22T16:31:41.742Z,94.23
2019-03-22T16:34:09.161Z,94.83
2019-03-22T16:36:36.419Z,95.52
2019-03-22T16:39:44.989Z,95.74
2019-03-22T16:42:12.241Z,96.31
2019-03-22T16:44:39.554Z,97.10
2019-03-22T16:47:06.870Z,97.75
2019-03-22T16:49:34.047Z,99.05
2019-03-22T16:52:01.286Z,99.92
2019-03-22T16:54:28.730Z,100.00
2019-03-22T16:56:55.985Z,100.00
2019-03-22T16:59:23.243Z,100.00
2019-03-22T17:01:50.589Z,100.00
2019-03-22T17:04:18.126Z,100.00
2019-03-22T17:06:45.664Z,100.00
2019-03-22T17:09:13.294Z,100.00
2019-03-22T17:11:40.576Z,100.00
2019-03-22T17:14:07.833Z,100.00
2019-03-22T17:16:35.416Z,100.00
2019-03-22T17:19:02.787Z,100.00
2019-03-22T17:21:30.504Z,100.00
2019-03-22T17:23:58.111Z,100.00
2019-03-22T17:26:25.361Z,100.00
2019-03-22T17:28:52.713Z,100.00
2019-03-22T17:31:20.024Z,100.00
2019-03-22T17:33:47.786Z,100.00
2019-03-22T17:36:15.314Z,100.00
2019-03-22T17:39:02.264Z,100.00
2019-03-22T17:41:29.515Z,100.00
2019-03-22T17:43:57.168Z,100.00
2019-03-22T17:46:24.609Z,100.00
2019-03-22T17:48:52.178Z,100.00
2019-03-22T17:51:19.439Z,100.00
2019-03-22T17:53:47.197Z,100.00
2019-03-22T17:56:14.460Z,100.00
2019-03-22T17:58:41.718Z,100.00
2019-03-22T18:01:09.145Z,100.00
2019-03-22T18:03:36.430Z,100.00
2019-03-22T18:06:03.786Z,100.00
2019-03-22T18:08:31.116Z,100.00
2019-03-22T18:10:58.683Z,100.00
2019-03-22T18:13:26.064Z,100.00
2019-03-22T18:15:53.672Z,100.00
2019-03-22T18:18:20.942Z,100.00
2019-03-22T18:20:48.213Z,100.00
2019-03-22T18:23:15.538Z,100.00
2019-03-22T18:25:42.808Z,100.00
2019-03-22T18:28:10.084Z,100.00
2019-03-22T18:30:38.031Z,100.00
2019-03-22T18:33:05.601Z,100.00
2019-03-22T18:35:32.847Z,100.00
2019-03-22T18:38:00.495Z,100.00
2019-03-22T18:40:28.157Z,100.00
2019-03-22T18:42:55.719Z,100.00
2019-03-22T18:45:23.332Z,100.00
2019-03-22T18:48:03.159Z,100.00
2019-03-22T18:50:30.531Z,100.00
2019-03-22T18:52:58.115Z,100.00
2019-03-22T18:55:25.701Z,100.00
2019-03-22T18:57:53.021Z,100.00
2019-03-22T19:00:20.288Z,100.00
2019-03-22T19:02:47.554Z,100.00
2019-03-22T19:05:14.970Z,100.00
2019-03-22T19:07:42.645Z,100.00
2019-03-22T19:10:10.231Z,100.00
2019-03-22T19:12:37.650Z,100.00
2019-03-22T19:15:06.204Z,100.00
2019-03-22T19:17:33.598Z,100.00
2019-03-22T19:20:00.911Z,100.00
2019-03-22T19:22:28.173Z,100.00
2019-03-22T19:24:55.433Z,100.00
2019-03-22T19:27:22.746Z,100.00
2019-03-22T19:29:50.630Z,100.00
2019-03-22T19:32:18.206Z,100.00
2019-03-22T19:34:53.974Z,100.00
2019-03-22T19:37:15.230Z,100.00
2019-03-22T19:39:43.282Z,100.00
2019-03-22T19:42:10.972Z,100.00
2019-03-22T19:44:38.628Z,100.00
2019-03-22T19:47:06.286Z,100.00
2019-03-22T19:49:34.046Z,100.00
2019-03-22T19:52:02.035Z,100.00
2019-03-22T19:54:30.026Z,100.00
2019-03-22T19:56:57.703Z,100.00
2019-03-22T19:59:25.359Z,100.00
2019-03-22T20:01:52.929Z,100.00
2019-03-22T20:04:20.595Z,100.00
2019-03-22T20:06:48.232Z,100.00
2019-03-22T20:09:16.267Z,100.00
2019-03-22T20:11:43.915Z,100.00
2019-03-22T20:14:11.898Z,100.00
2019-03-22T20:16:39.523Z,100.00
2019-03-22T20:19:07.370Z,100.00
2019-03-22T20:21:34.991Z,100.00
2019-03-22T20:24:02.614Z,100.00
2019-03-22T20:26:30.294Z,100.00
2019-03-22T20:28:57.945Z,100.00
2019-03-22T20:31:25.873Z,100.00
2019-03-22T20:33:54.329Z,100.00
2019-03-22T20:36:21.979Z,100.00
2019-03-22T20:38:50.676Z,100.00
2019-03-22T20:41:18.355Z,100.00
2019-03-22T20:43:46.400Z,100.00
2019-03-22T20:46:14.020Z,100.00
2019-03-22T20:48:42.142Z,100.00
2019-03-22T20:51:09.836Z,100.00
2019-03-22T20:53:37.871Z,100.00
2019-03-22T20:56:05.944Z,100.00
2019-03-22T20:58:33.562Z,100.00
2019-03-22T21:01:01.194Z,100.00
2019-03-22T21:03:28.959Z,100.00
2019-03-22T21:05:56.993Z,100.00
2019-03-22T21:08:25.064Z,100.00
2019-03-22T21:10:52.753Z,100.00
2019-03-22T21:13:20.425Z,100.00
2019-03-22T21:15:48.052Z,100.00
2019-03-22T21:18:16.116Z,100.00
2019-03-22T21:20:44.081Z,100.00
2019-03-22T21:23:11.696Z,100.00
2019-03-22T21:25:39.411Z,100.00
2019-03-22T21:28:07.050Z,100.00
2019-03-22T21:30:35.056Z,100.00
2019-03-22T21:33:02.792Z,100.00
2019-03-22T21:35:37.203Z,100.00
2019-03-22T21:38:10.096Z,100.00
2019-03-22T21:40:29.425Z,100.00
2019-03-22T21:42:56.702Z,100.00
2019-03-22T21:45:25.086Z,100.00
2019-03-22T21:47:52.634Z,100.00
2019-03-22T21:50:20.272Z,100.00
2019-03-22T21:52:47.679Z,100.00
2019-03-22T21:55:15.014Z,100.00
2019-03-22T21:57:42.260Z,100.00
2019-03-22T22:00:09.727Z,100.00
2019-03-22T22:02:37.249Z,100.00
2019-03-22T22:05:05.053Z,100.00
2019-03-22T22:07:32.321Z,100.00
2019-03-22T22:10:00.251Z,100.00
2019-03-22T22:12:29.780Z,100.00
2019-03-22T22:14:56.744Z,100.00
2019-03-22T22:17:24.061Z,100.00
2019-03-22T22:19:51.322Z,100.00
2019-03-22T22:22:18.959Z,100.00
2019-03-22T22:24:46.625Z,100.00
2019-03-22T22:27:14.417Z,100.00
2019-03-22T22:29:43.074Z,100.00
2019-03-22T22:32:10.449Z,100.00
2019-03-22T22:34:38.394Z,100.00
2019-03-22T22:37:05.673Z,100.00
2019-03-22T22:39:33.438Z,100.00
2019-03-22T22:42:01.017Z,100.00
2019-03-22T22:44:28.544Z,100.00
2019-03-22T22:46:56.287Z,100.00
2019-03-22T22:49:23.593Z,100.00
2019-03-22T22:51:50.857Z,100.00
2019-03-22T22:54:18.555Z,100.00
2019-03-22T22:56:45.814Z,100.00
2019-03-22T22:59:13.307Z,100.00
2019-03-22T23:01:40.800Z,100.00
2019-03-22T23:04:08.662Z,100.00
2019-03-22T23:06:36.766Z,100.00
2019-03-22T23:09:45.106Z,100.00
2019-03-22T23:12:12.684Z,100.00
2019-03-22T23:14:40.380Z,100.00
2019-03-22T23:17:08.009Z,100.00
2019-03-22T23:19:35.393Z,100.00
2019-03-22T23:22:02.662Z,100.00
2019-03-22T23:24:30.540Z,100.00
2019-03-22T23:26:57.838Z,100.00
2019-03-22T23:29:25.067Z,100.00
2019-03-22T23:31:52.464Z,100.00
2019-03-22T23:34:19.726Z,100.00
2019-03-22T23:36:46.989Z,100.00
2019-03-22T23:39:14.340Z,100.00
2019-03-22T23:41:41.946Z,100.00
2019-03-22T23:44:09.491Z,100.00
2019-03-22T23:46:37.299Z,100.00
2019-03-22T23:49:04.659Z,100.00
2019-03-22T23:51:32.160Z,100.00
2019-03-22T23:53:59.664Z,100.00
2019-03-22T23:56:26.968Z,100.00
2019-03-22T23:58:54.610Z,100.00
